createdAt,value
2022-11-23T08:07:38.079Z,67.31
2022-11-23T08:08:39.543Z,66.76
2022-11-23T08:09:40.968Z,65.81
2022-11-23T08:10:47.207Z,64.75
2022-11-23T08:11:51.404Z,63.25
2022-11-23T08:12:56.132Z,62.07
2022-11-23T08:13:57.439Z,60.95
2022-11-23T08:14:58.861Z,60.08
2022-11-23T08:16:01.108Z,59.26
2022-11-23T08:17:02.629Z,58.99
2022-11-23T08:18:05.044Z,59.07
2022-11-23T08:19:06.528Z,58.82
2022-11-23T08:20:08.254Z,57.71
2022-11-23T08:21:09.690Z,57.61
2022-11-23T08:22:14.720Z,56.86
2022-11-23T08:23:17.314Z,55.55
2022-11-23T08:24:18.801Z,55.36
2022-11-23T08:25:20.167Z,55.25
2022-11-23T08:26:21.723Z,55.24
2022-11-23T08:27:26.216Z,56.15
2022-11-23T08:28:27.590Z,56.48
2022-11-23T08:29:29.671Z,55.85
2022-11-23T08:30:32.959Z,53.55
2022-11-23T08:31:34.426Z,53.86
2022-11-23T08:32:39.872Z,54.42
2022-11-23T08:33:41.354Z,54.13
2022-11-23T08:34:44.425Z,54.18
2022-11-23T08:35:45.851Z,54.10
2022-11-23T08:36:48.177Z,54.07
2022-11-23T08:37:53.438Z,54.52
2022-11-23T08:38:54.903Z,55.06
2022-11-23T08:39:56.243Z,53.22
2022-11-23T08:41:02.313Z,53.60
2022-11-23T08:42:04.470Z,52.45
2022-11-23T08:43:09.751Z,53.18
2022-11-23T08:44:12.221Z,52.49
2022-11-23T08:45:13.713Z,54.90
2022-11-23T08:46:15.715Z,54.42
2022-11-23T08:47:17.111Z,54.39
2022-11-23T08:48:21.495Z,53.63
2022-11-23T08:49:22.916Z,51.44
2022-11-23T08:50:24.364Z,51.62
2022-11-23T08:51:25.760Z,52.57
2022-11-23T08:52:27.368Z,51.72
2022-11-23T08:53:28.860Z,50.08
2022-11-23T08:54:32.001Z,49.96
2022-11-23T08:55:36.569Z,49.87
2022-11-23T08:56:37.912Z,49.62
2022-11-23T08:57:39.270Z,51.17
2022-11-23T08:58:40.616Z,51.56
2022-11-23T08:59:42.018Z,51.42
2022-11-23T09:00:43.467Z,52.19
2022-11-23T09:01:45.308Z,51.65
2022-11-23T09:02:50.923Z,53.86
2022-11-23T09:03:54.660Z,53.03
2022-11-23T09:04:56.656Z,53.08
2022-11-23T09:06:00.275Z,51.07
2022-11-23T09:07:03.243Z,50.20
2022-11-23T09:08:05.349Z,51.95
2022-11-23T09:09:06.891Z,52.52
2022-11-23T09:10:09.957Z,51.25
2022-11-23T09:11:17.560Z,50.39
2022-11-23T09:12:19.214Z,50.64
2022-11-23T09:13:20.838Z,50.01
2022-11-23T09:14:23.447Z,51.38
2022-11-23T09:15:25.561Z,54.26
2022-11-23T09:16:32.419Z,53.05
2022-11-23T09:17:36.093Z,55.08
2022-11-23T09:18:37.789Z,57.04
2022-11-23T09:19:39.471Z,54.35
2022-11-23T09:20:41.309Z,52.84
2022-11-23T09:21:43.315Z,53.83
2022-11-23T09:22:50.911Z,54.59
2022-11-23T09:23:52.290Z,51.84
2022-11-23T09:24:53.895Z,52.60
2022-11-23T09:26:01.414Z,50.99
2022-11-23T09:27:02.771Z,54.50
2022-11-23T09:28:04.362Z,55.72
2022-11-23T09:29:09.566Z,55.67
2022-11-23T09:30:11.742Z,54.08
2022-11-23T09:31:13.116Z,51.64
2022-11-23T09:32:14.575Z,49.93
2022-11-23T09:33:16.400Z,51.21
2022-11-23T09:34:17.859Z,51.91
2022-11-23T09:35:19.181Z,52.43
2022-11-23T09:36:24.540Z,52.32
2022-11-23T09:37:25.923Z,52.44
2022-11-23T09:38:55.057Z,51.63
2022-11-23T09:39:52.825Z,52.98
2022-11-23T09:41:13.454Z,52.23
2022-11-23T09:42:45.472Z,48.62
2022-11-23T09:44:11.182Z,47.72
2022-11-23T09:45:38.086Z,48.25
2022-11-23T09:47:08.097Z,47.51
2022-11-23T09:48:31.519Z,48.87
2022-11-23T09:49:45.183Z,50.85
2022-11-23T09:50:48.297Z,51.35
2022-11-23T09:51:51.211Z,50.30
2022-11-23T09:52:53.947Z,49.91
2022-11-23T09:54:10.571Z,51.02
2022-11-23T09:55:24.482Z,50.50
2022-11-23T09:56:30.275Z,49.77
2022-11-23T09:57:34.549Z,48.28
2022-11-23T09:58:40.453Z,47.04
2022-11-23T09:59:47.125Z,47.90
2022-11-23T10:00:51.546Z,49.09
2022-11-23T10:01:57.229Z,47.47
2022-11-23T10:02:58.835Z,47.34
2022-11-23T10:04:00.421Z,47.92
2022-11-23T10:05:03.984Z,47.30
2022-11-23T10:06:14.073Z,49.91
2022-11-23T10:07:22.771Z,47.56
2022-11-23T10:08:56.574Z,48.05
2022-11-23T10:10:12.283Z,49.16
2022-11-23T10:11:23.904Z,49.21
2022-11-23T10:12:50.015Z,48.53
2022-11-23T10:14:19.448Z,49.77
2022-11-23T10:15:28.414Z,45.77
2022-11-23T10:16:44.510Z,44.84
2022-11-23T10:18:05.190Z,43.59
2022-11-23T10:19:18.152Z,43.80
2022-11-23T10:20:34.684Z,47.88
2022-11-23T10:21:39.161Z,45.24
2022-11-23T10:22:58.522Z,46.30
2022-11-23T10:24:19.207Z,44.51
2022-11-23T10:25:22.411Z,44.29
2022-11-23T10:26:32.321Z,44.61
2022-11-23T10:27:33.735Z,43.94
2022-11-23T10:28:36.344Z,43.98
2022-11-23T10:29:38.883Z,46.04
2022-11-23T10:30:40.610Z,45.91
2022-11-23T10:31:48.915Z,45.32
2022-11-23T10:33:05.334Z,45.33
2022-11-23T10:34:12.940Z,43.56
2022-11-23T10:35:27.494Z,44.41
2022-11-23T10:36:28.921Z,44.12
2022-11-23T10:37:31.583Z,43.38
2022-11-23T10:38:34.216Z,43.36
2022-11-23T10:39:35.588Z,42.86
2022-11-23T10:40:40.949Z,42.01
2022-11-23T10:41:44.172Z,45.65
2022-11-23T10:42:53.679Z,44.61
2022-11-23T10:43:58.304Z,43.63
2022-11-23T10:45:01.447Z,42.86
2022-11-23T10:46:33.751Z,42.69
2022-11-23T10:47:39.154Z,42.59
2022-11-23T10:48:40.826Z,43.00
2022-11-23T10:49:57.231Z,43.04
2022-11-23T10:51:16.882Z,42.76
2022-11-23T10:52:33.301Z,43.59
2022-11-23T10:53:35.029Z,45.63
2022-11-23T10:54:52.575Z,44.93
2022-11-23T10:55:58.016Z,43.56
2022-11-23T10:57:01.726Z,43.30
2022-11-23T10:58:03.362Z,44.17
2022-11-23T10:59:04.797Z,43.97
2022-11-23T11:00:09.795Z,44.62
2022-11-23T11:01:25.555Z,43.29
2022-11-23T11:02:32.512Z,42.10
2022-11-23T11:03:35.092Z,44.55
2022-11-23T11:04:36.505Z,43.56
2022-11-23T11:06:07.564Z,43.13
2022-11-23T11:07:22.260Z,44.14
2022-11-23T11:08:32.271Z,45.04
2022-11-23T11:09:34.213Z,44.75
2022-11-23T11:10:58.883Z,44.02
2022-11-23T11:12:00.262Z,44.72
2022-11-23T11:13:02.009Z,44.52
2022-11-23T11:14:17.026Z,45.53
2022-11-23T11:15:19.066Z,45.39
2022-11-23T11:16:34.975Z,44.30
2022-11-23T11:17:37.843Z,45.36
2022-11-23T11:18:39.252Z,45.09
2022-11-23T11:19:40.725Z,45.82
2022-11-23T11:20:45.857Z,48.04
2022-11-23T11:21:47.612Z,47.21
2022-11-23T11:22:49.482Z,46.65
2022-11-23T11:23:59.409Z,46.06
2022-11-23T11:25:04.326Z,46.74
2022-11-23T11:26:21.680Z,48.41
2022-11-23T11:27:25.729Z,46.27
2022-11-23T11:28:48.736Z,45.70
2022-11-23T11:30:00.393Z,46.27
2022-11-23T11:31:18.435Z,47.61
2022-11-23T11:32:38.933Z,46.06
2022-11-23T11:34:05.929Z,46.86
2022-11-23T11:35:17.619Z,46.57
2022-11-23T11:36:25.219Z,49.15
2022-11-23T11:37:34.636Z,50.66
2022-11-23T11:38:37.811Z,49.22
2022-11-23T11:39:46.260Z,50.16
2022-11-23T11:40:50.185Z,50.43
2022-11-23T11:41:54.758Z,47.42
2022-11-23T11:43:23.043Z,46.62
2022-11-23T11:44:33.381Z,45.07
2022-11-23T11:45:54.499Z,45.38
2022-11-23T11:47:25.475Z,48.67
2022-11-23T11:48:39.704Z,49.55
2022-11-23T11:49:45.764Z,49.64
2022-11-23T11:50:52.554Z,50.04
2022-11-23T11:52:02.348Z,48.74
2022-11-23T11:53:08.311Z,48.02
2022-11-23T11:54:37.282Z,46.79
2022-11-23T11:57:35.049Z,47.11
2022-11-23T11:58:41.718Z,48.24
2022-11-23T11:59:48.824Z,48.51
2022-11-23T12:00:51.526Z,49.11
2022-11-23T12:02:24.424Z,48.15
2022-11-23T12:03:37.255Z,48.33
2022-11-23T12:04:48.245Z,47.17
2022-11-23T12:05:52.759Z,50.57
2022-11-23T12:07:16.042Z,48.89
2022-11-23T12:08:50.793Z,51.87
2022-11-23T12:10:07.028Z,53.76
2022-11-23T12:11:10.207Z,51.12
2022-11-23T12:12:16.654Z,50.57
2022-11-23T12:13:19.920Z,51.15
2022-11-23T12:14:21.486Z,52.04
2022-11-23T12:15:55.661Z,53.51
2022-11-23T12:17:37.023Z,55.63
2022-11-23T12:18:45.866Z,53.75
2022-11-23T12:20:04.680Z,53.83
2022-11-23T12:21:28.070Z,52.78
2022-11-23T12:22:44.827Z,53.37
2022-11-23T12:24:14.194Z,52.03
2022-11-23T12:25:37.233Z,51.55
2022-11-23T12:26:54.409Z,51.38
2022-11-23T12:28:16.829Z,51.45
2022-11-23T12:29:36.144Z,50.35
2022-11-23T12:30:47.594Z,54.29
2022-11-23T12:32:26.756Z,54.47
2022-11-23T12:33:42.535Z,53.18
2022-11-23T12:35:11.842Z,55.57
2022-11-23T12:36:25.135Z,57.13
2022-11-23T12:38:00.466Z,54.37
2022-11-23T12:39:21.953Z,53.12
2022-11-23T12:40:37.980Z,52.71
2022-11-23T12:41:39.340Z,52.46
2022-11-23T12:42:45.899Z,52.84
2022-11-23T12:43:59.427Z,53.56
2022-11-23T12:45:27.038Z,53.34
2022-11-23T12:46:49.386Z,53.47
2022-11-23T12:48:12.326Z,53.70
2022-11-23T12:49:47.462Z,54.37
2022-11-23T12:51:07.304Z,54.51
2022-11-23T12:52:33.176Z,53.85
2022-11-23T12:54:22.374Z,56.08
2022-11-23T12:55:30.830Z,55.52
2022-11-23T12:56:51.511Z,55.18
2022-11-23T12:58:25.316Z,56.53
2022-11-23T12:59:36.148Z,56.86
2022-11-23T13:00:46.079Z,57.39
2022-11-23T13:01:57.360Z,57.23
2022-11-23T13:02:58.693Z,57.84
2022-11-23T13:04:15.028Z,56.85
2022-11-23T13:05:30.751Z,56.68
2022-11-23T13:07:26.213Z,56.30
2022-11-23T13:08:39.092Z,57.12
2022-11-23T13:09:59.351Z,54.30
2022-11-23T13:11:28.341Z,54.79
2022-11-23T13:12:38.580Z,56.36
2022-11-23T13:14:15.238Z,57.81
2022-11-23T13:15:19.226Z,59.08
2022-11-23T13:16:44.348Z,58.97
2022-11-23T13:17:57.653Z,57.98
2022-11-23T13:19:26.680Z,60.13
2022-11-23T13:20:42.265Z,58.37
2022-11-23T13:21:46.075Z,58.05
2022-11-23T13:22:49.095Z,57.85
2022-11-23T13:23:50.756Z,57.23
2022-11-23T13:25:14.132Z,55.37
2022-11-23T13:26:18.891Z,55.34
2022-11-23T13:27:32.028Z,56.50
2022-11-23T13:28:33.548Z,57.38
2022-11-23T13:29:50.324Z,57.85
2022-11-23T13:31:16.942Z,56.76
2022-11-23T13:32:57.678Z,58.05
2022-11-23T13:34:20.360Z,59.36
2022-11-23T13:35:24.535Z,57.80
2022-11-23T13:37:56.265Z,58.33
2022-11-23T13:38:59.147Z,57.99
2022-11-23T13:40:03.569Z,56.92
2022-11-23T13:41:34.030Z,57.50
2022-11-23T13:42:35.756Z,57.43
2022-11-23T13:43:37.271Z,56.99
2022-11-23T13:44:41.908Z,57.18
2022-11-23T13:45:43.541Z,57.24
2022-11-23T13:47:00.782Z,56.10
2022-11-23T13:48:34.192Z,55.58
2022-11-23T13:49:48.639Z,56.13
2022-11-23T13:50:50.848Z,56.84
2022-11-23T13:52:24.441Z,57.22
2022-11-23T13:53:38.976Z,56.88
2022-11-23T13:54:40.358Z,56.33
2022-11-23T13:55:42.698Z,57.47
2022-11-23T13:56:44.845Z,57.49
2022-11-23T13:58:21.693Z,57.78
2022-11-23T13:59:27.433Z,57.15
2022-11-23T14:00:48.952Z,57.46
2022-11-23T14:02:08.752Z,57.67
2022-11-23T14:03:48.303Z,57.06
2022-11-23T14:04:52.825Z,56.30
2022-11-23T14:05:59.351Z,56.03
2022-11-23T14:07:08.739Z,54.50
2022-11-23T14:08:12.528Z,53.76
2022-11-23T14:09:51.263Z,54.81
2022-11-23T14:10:54.173Z,54.70
2022-11-23T14:12:07.678Z,55.18
2022-11-23T14:13:17.965Z,55.55
2022-11-23T14:14:23.429Z,55.57
2022-11-23T14:15:29.031Z,55.63
2022-11-23T14:16:46.115Z,56.40
2022-11-23T14:17:58.719Z,55.55
2022-11-23T14:19:32.047Z,54.89
2022-11-23T14:20:48.575Z,54.67
2022-11-23T14:21:58.905Z,55.41
2022-11-23T14:23:22.153Z,55.85
2022-11-23T14:24:46.392Z,57.13
2022-11-23T14:26:15.921Z,56.20
2022-11-23T14:27:47.846Z,58.29
2022-11-23T14:29:07.528Z,57.75
2022-11-23T14:30:50.159Z,57.73
2022-11-23T14:31:57.709Z,57.18
2022-11-23T14:33:11.327Z,55.96
2022-11-23T14:34:50.329Z,56.19
2022-11-23T14:35:51.621Z,55.42
2022-11-23T14:37:34.295Z,56.20
2022-11-23T14:39:07.074Z,57.06
2022-11-23T14:40:38.118Z,57.55
2022-11-23T14:41:42.314Z,58.44
2022-11-23T14:42:50.562Z,58.60
2022-11-23T14:43:53.088Z,59.64
2022-11-23T14:44:57.869Z,60.90
2022-11-23T14:46:04.413Z,62.64
2022-11-23T14:47:07.827Z,63.40
2022-11-23T14:48:22.479Z,62.83
2022-11-23T14:49:24.824Z,64.54
2022-11-23T14:50:29.292Z,64.21
2022-11-23T14:51:34.282Z,64.85
2022-11-23T14:52:37.004Z,65.12
2022-11-23T14:53:46.886Z,65.58
2022-11-23T14:54:50.915Z,65.83
2022-11-23T14:55:52.393Z,66.00
2022-11-23T14:57:01.464Z,66.26
2022-11-23T14:58:05.342Z,65.99
2022-11-23T14:59:36.718Z,66.23
2022-11-23T15:00:44.219Z,65.92
2022-11-23T15:01:53.031Z,66.12
2022-11-23T15:02:56.632Z,66.62
2022-11-23T15:04:00.087Z,66.20
2022-11-23T15:05:12.448Z,65.98
2022-11-23T15:06:18.273Z,66.08
2022-11-23T15:07:23.533Z,65.88
2022-11-23T15:08:30.074Z,66.14
2022-11-23T15:09:54.245Z,65.45
2022-11-23T15:11:13.003Z,65.79
2022-11-23T15:12:29.543Z,65.96
2022-11-23T15:13:39.207Z,66.11
2022-11-23T15:14:43.363Z,66.12
2022-11-23T15:15:45.758Z,66.23
2022-11-23T15:16:47.679Z,66.54
2022-11-23T15:18:02.613Z,66.19
2022-11-23T15:19:17.999Z,66.65
2022-11-23T15:20:20.531Z,66.22
2022-11-23T15:21:28.801Z,66.45
2022-11-23T15:22:32.048Z,66.40
2022-11-23T15:23:57.212Z,67.15
2022-11-23T15:25:08.210Z,67.11
2022-11-23T15:26:46.287Z,66.81
2022-11-23T15:27:45.267Z,66.92
2022-11-23T15:28:46.833Z,66.84
2022-11-23T15:29:54.384Z,67.01
2022-11-23T15:30:58.653Z,66.61
2022-11-23T15:32:34.671Z,66.43
2022-11-23T15:33:25.594Z,66.40
2022-11-23T15:34:27.824Z,65.99
2022-11-23T15:35:34.202Z,66.01
2022-11-23T15:36:38.333Z,65.83
2022-11-23T15:37:51.345Z,65.79
2022-11-23T15:38:54.370Z,65.43
2022-11-23T15:39:56.639Z,65.58
2022-11-23T15:41:04.998Z,65.41
2022-11-23T15:42:07.063Z,65.79
2022-11-23T15:43:15.958Z,66.11
2022-11-23T15:44:30.441Z,66.09
2022-11-23T15:45:35.930Z,65.69
2022-11-23T15:46:38.777Z,66.09
2022-11-23T15:47:40.232Z,65.97
2022-11-23T15:48:41.607Z,66.67
2022-11-23T15:49:43.031Z,65.95
2022-11-23T15:50:51.319Z,66.14
2022-11-23T15:51:59.616Z,66.01
2022-11-23T15:53:02.255Z,65.99
2022-11-23T15:54:04.035Z,66.30
2022-11-23T15:55:14.441Z,66.59
2022-11-23T15:56:34.181Z,66.57
2022-11-23T15:57:35.775Z,66.15
2022-11-23T15:58:37.329Z,65.92
2022-11-23T15:59:49.001Z,66.13
2022-11-23T16:01:00.343Z,66.56
2022-11-23T16:02:07.155Z,66.31
2022-11-23T16:03:28.955Z,65.84
2022-11-23T16:04:40.058Z,66.24
2022-11-23T16:05:41.460Z,65.70
2022-11-23T16:06:47.637Z,66.20
2022-11-23T16:08:00.620Z,66.01
2022-11-23T16:09:28.229Z,65.34
2022-11-23T16:10:32.082Z,66.24
2022-11-23T16:11:36.567Z,65.82
2022-11-23T16:12:51.385Z,65.48
2022-11-23T16:13:52.771Z,65.71
2022-11-23T16:14:56.058Z,66.33
2022-11-23T16:16:01.231Z,66.13
2022-11-23T16:17:17.778Z,66.09
2022-11-23T16:18:24.720Z,65.44
2022-11-23T16:19:31.370Z,65.50
2022-11-23T16:20:33.006Z,65.88
2022-11-23T16:21:34.472Z,65.70
2022-11-23T16:22:40.005Z,66.19
2022-11-23T16:23:54.191Z,66.33
2022-11-23T16:25:09.952Z,65.37
2022-11-23T16:26:13.116Z,66.02
2022-11-23T16:27:15.291Z,65.66
2022-11-23T16:28:22.578Z,65.62
2022-11-23T16:29:26.537Z,65.47
2022-11-23T16:30:36.420Z,66.10
2022-11-23T16:31:40.009Z,66.33
2022-11-23T16:32:44.962Z,66.56
2022-11-23T16:33:46.363Z,66.36
2022-11-23T16:34:48.087Z,66.80
2022-11-23T16:35:50.169Z,67.23
2022-11-23T16:36:52.846Z,67.39
2022-11-23T16:37:54.281Z,66.77
2022-11-23T16:38:59.686Z,66.83
2022-11-23T16:40:04.231Z,67.40
2022-11-23T16:41:05.706Z,66.88
2022-11-23T16:42:07.129Z,67.35
2022-11-23T16:43:12.516Z,67.87
2022-11-23T16:44:13.996Z,68.73
2022-11-23T16:45:15.619Z,69.29
2022-11-23T16:46:17.146Z,68.86
2022-11-23T16:47:24.438Z,69.20
2022-11-23T16:48:25.726Z,69.80
2022-11-23T16:49:27.102Z,70.39
2022-11-23T16:50:31.155Z,70.52
2022-11-23T16:51:32.520Z,70.56
2022-11-23T16:52:36.932Z,71.84
2022-11-23T16:54:11.453Z,71.42
2022-11-23T16:55:03.000Z,73.14
2022-11-23T16:56:04.693Z,72.77
2022-11-23T16:57:06.262Z,72.10
2022-11-23T16:58:16.605Z,71.95
2022-11-23T16:59:18.786Z,71.74
2022-11-23T17:00:22.423Z,72.38
2022-11-23T17:01:26.499Z,72.73
2022-11-23T17:02:27.989Z,72.26
2022-11-23T17:03:29.525Z,73.23
2022-11-23T17:04:31.195Z,72.93
2022-11-23T17:05:32.952Z,73.84
2022-11-23T17:06:34.309Z,74.35
2022-11-23T17:07:35.686Z,73.29
2022-11-23T17:08:37.132Z,74.62
2022-11-23T17:09:42.720Z,74.56
2022-11-23T17:10:44.241Z,75.33
2022-11-23T17:11:49.980Z,75.19
2022-11-23T17:12:54.555Z,74.51
2022-11-23T17:13:56.890Z,74.28
2022-11-23T17:14:59.626Z,73.81
2022-11-23T17:16:01.107Z,73.96
2022-11-23T17:17:03.694Z,74.05
2022-11-23T17:18:05.216Z,74.87
2022-11-23T17:19:24.509Z,74.69
2022-11-23T17:20:25.870Z,75.30
2022-11-23T17:21:27.386Z,76.00
2022-11-23T17:22:28.841Z,76.96
2022-11-23T17:23:30.171Z,75.74
2022-11-23T17:24:32.014Z,75.88
2022-11-23T17:25:34.901Z,77.05
2022-11-23T17:26:43.044Z,78.26
2022-11-23T17:27:46.130Z,78.54
2022-11-23T17:28:47.570Z,78.49
2022-11-23T17:29:56.026Z,79.10
2022-11-23T17:30:57.507Z,78.64
2022-11-23T17:31:59.032Z,79.33
2022-11-23T17:33:03.879Z,80.46
2022-11-23T17:34:05.239Z,80.97
2022-11-23T17:35:06.950Z,81.32
2022-11-23T17:36:09.636Z,81.46
2022-11-23T17:37:18.261Z,81.33
2022-11-23T17:38:24.999Z,82.40
2022-11-23T17:39:28.266Z,82.89
2022-11-23T17:40:30.081Z,82.79
2022-11-23T17:41:31.474Z,84.47
2022-11-23T17:42:35.773Z,85.04
2022-11-23T17:43:37.568Z,84.94
2022-11-23T17:44:39.172Z,85.83
2022-11-23T17:45:41.281Z,85.57
2022-11-23T17:46:43.996Z,86.13
2022-11-23T17:47:45.751Z,86.60
2022-11-23T17:48:55.139Z,86.28
2022-11-23T17:49:57.993Z,85.61
2022-11-23T17:50:59.620Z,85.99
2022-11-23T17:52:01.150Z,86.63
2022-11-23T17:53:02.591Z,86.48
2022-11-23T17:54:04.038Z,87.30
2022-11-23T17:55:06.088Z,88.43
2022-11-23T17:56:16.905Z,89.52
2022-11-23T17:57:27.551Z,88.42
2022-11-23T17:58:29.161Z,88.39
2022-11-23T17:59:31.281Z,88.81
2022-11-23T18:00:33.161Z,88.38
2022-11-23T18:01:34.604Z,88.71
2022-11-23T18:02:36.100Z,89.09
2022-11-23T18:03:37.555Z,87.79
2022-11-23T18:04:39.097Z,87.91
2022-11-23T18:05:40.442Z,88.41
